createdAt,value
2022-11-30T00:01:31.506Z,7.38
2022-11-30T00:03:59.662Z,8.20
2022-11-30T00:06:27.947Z,8.48
2022-11-30T00:08:56.786Z,8.07
2022-11-30T00:11:28.479Z,8.80
2022-11-30T00:13:56.827Z,7.45
2022-11-30T00:16:25.066Z,7.32
2022-11-30T00:18:53.304Z,7.70
2022-11-30T00:21:21.345Z,7.10
2022-11-30T00:23:50.062Z,7.65
2022-11-30T00:26:20.596Z,7.60
2022-11-30T00:28:50.772Z,7.75
2022-11-30T00:31:20.192Z,7.88
2022-11-30T00:33:48.460Z,7.72
2022-11-30T00:36:18.482Z,7.97
2022-11-30T00:38:47.352Z,7.97
2022-11-30T00:41:16.147Z,7.03
2022-11-30T00:43:44.253Z,8.25
2022-11-30T00:46:13.891Z,7.10
2022-11-30T00:48:42.775Z,8.18
2022-11-30T00:51:12.339Z,8.27
2022-11-30T00:53:43.296Z,7.80
2022-11-30T00:56:12.331Z,8.15
2022-11-30T00:58:40.542Z,8.63
2022-11-30T01:01:11.098Z,8.70
2022-11-30T01:03:40.635Z,9.52
2022-11-30T01:06:10.504Z,8.98
2022-11-30T01:08:38.800Z,8.95
2022-11-30T01:11:09.620Z,8.98
2022-11-30T01:13:37.696Z,9.18
2022-11-30T01:16:11.671Z,8.50
2022-11-30T01:18:41.176Z,9.50
2022-11-30T01:21:14.400Z,9.63
2022-11-30T01:23:43.253Z,10.25
2022-11-30T01:26:11.737Z,9.95
2022-11-30T01:28:40.812Z,10.10
2022-11-30T01:31:11.038Z,10.18
2022-11-30T01:33:40.775Z,11.95
2022-11-30T01:36:12.407Z,10.98
2022-11-30T01:38:42.556Z,11.75
2022-11-30T01:41:13.114Z,11.93
2022-11-30T01:43:43.470Z,11.18
2022-11-30T01:46:28.612Z,10.75
2022-11-30T01:49:04.203Z,11.13
2022-11-30T01:51:38.120Z,9.90
2022-11-30T01:54:09.839Z,10.77
2022-11-30T01:56:40.941Z,10.82
2022-11-30T01:59:09.765Z,11.45
2022-11-30T02:01:37.923Z,11.00
2022-11-30T02:04:12.101Z,10.13
2022-11-30T02:06:40.291Z,10.65
2022-11-30T02:09:09.425Z,10.77
2022-11-30T02:11:37.615Z,10.40
2022-11-30T02:14:18.634Z,11.00
2022-11-30T02:16:57.135Z,10.75
2022-11-30T02:19:59.260Z,10.40
2022-11-30T02:22:43.068Z,10.45
2022-11-30T02:25:23.110Z,9.60
2022-11-30T02:28:08.831Z,10.63
2022-11-30T02:30:42.556Z,9.75
2022-11-30T02:33:16.081Z,10.02
2022-11-30T02:35:51.648Z,9.80
2022-11-30T02:38:23.780Z,9.93
2022-11-30T02:40:51.974Z,10.25
2022-11-30T02:43:22.455Z,9.48
2022-11-30T02:45:59.159Z,9.65
2022-11-30T02:48:32.907Z,10.97
2022-11-30T02:51:03.656Z,9.32
2022-11-30T02:53:34.383Z,9.85
2022-11-30T02:56:02.503Z,9.38
2022-11-30T02:58:30.677Z,9.23
2022-11-30T03:01:00.168Z,9.90
2022-11-30T03:03:28.320Z,9.45
2022-11-30T03:05:56.565Z,10.43
2022-11-30T03:08:24.829Z,9.85
2022-11-30T03:10:52.916Z,9.90
2022-11-30T03:13:21.068Z,10.55
2022-11-30T03:15:49.196Z,10.68
2022-11-30T03:18:18.747Z,10.70
2022-11-30T03:20:47.104Z,10.07
2022-11-30T03:23:17.942Z,9.93
2022-11-30T03:25:46.161Z,9.52
2022-11-30T03:28:16.360Z,9.43
2022-11-30T03:30:49.887Z,9.98
2022-11-30T03:33:19.953Z,9.85
2022-11-30T03:35:48.651Z,10.07
2022-11-30T03:38:16.782Z,10.15
2022-11-30T03:40:44.934Z,9.70
2022-11-30T03:43:13.089Z,9.77
2022-11-30T03:45:41.156Z,9.90
2022-11-30T03:48:09.322Z,10.05
2022-11-30T03:50:38.863Z,10.68
2022-11-30T03:53:06.935Z,9.48
2022-11-30T03:55:35.546Z,9.85
2022-11-30T03:58:03.621Z,9.98
2022-11-30T04:00:31.716Z,9.60
2022-11-30T04:02:59.762Z,10.02
2022-11-30T04:05:27.865Z,10.20
2022-11-30T04:07:57.289Z,10.52
2022-11-30T04:10:25.481Z,10.60
2022-11-30T04:12:53.431Z,10.52
2022-11-30T04:15:21.472Z,10.90
2022-11-30T04:17:49.548Z,11.05
2022-11-30T04:20:17.732Z,10.70
2022-11-30T04:22:46.042Z,10.60
2022-11-30T04:25:15.427Z,10.50
2022-11-30T04:27:47.848Z,10.20
2022-11-30T04:30:17.281Z,11.15
2022-11-30T04:32:45.337Z,10.88
2022-11-30T04:35:13.417Z,11.30
2022-11-30T04:37:41.631Z,10.32
2022-11-30T04:40:10.716Z,11.45
2022-11-30T04:42:40.212Z,11.40
2022-11-30T04:45:09.594Z,11.63
2022-11-30T04:47:38.022Z,12.25
2022-11-30T04:50:07.936Z,11.57
2022-11-30T04:52:36.586Z,11.18
2022-11-30T04:55:08.025Z,11.52
2022-11-30T04:57:40.059Z,13.00
2022-11-30T05:00:09.730Z,12.57
2022-11-30T05:02:37.782Z,13.07
2022-11-30T05:05:06.510Z,12.30
2022-11-30T05:07:34.905Z,13.48
2022-11-30T05:10:03.077Z,13.98
2022-11-30T05:12:31.126Z,14.05
2022-11-30T05:15:00.694Z,14.43
2022-11-30T05:17:28.769Z,14.43
2022-11-30T05:19:56.915Z,14.07
2022-11-30T05:22:27.073Z,14.35
2022-11-30T05:24:55.158Z,14.98
2022-11-30T05:27:23.203Z,15.02
2022-11-30T05:29:51.191Z,15.00
2022-11-30T05:32:20.687Z,15.18
2022-11-30T05:34:51.579Z,15.27
2022-11-30T05:37:20.228Z,14.93
2022-11-30T05:39:48.255Z,15.02
2022-11-30T05:42:16.343Z,16.30
2022-11-30T05:44:45.379Z,15.75
2022-11-30T05:47:13.994Z,14.77
2022-11-30T05:49:43.599Z,15.45
2022-11-30T05:52:11.889Z,15.70
2022-11-30T05:54:39.920Z,15.95
2022-11-30T05:57:07.949Z,15.88
2022-11-30T05:59:35.951Z,15.60
2022-11-30T06:02:04.149Z,16.60
2022-11-30T06:04:33.574Z,17.48
2022-11-30T06:07:02.944Z,16.10
2022-11-30T06:09:31.080Z,16.10
2022-11-30T06:11:59.144Z,15.73
2022-11-30T06:14:27.342Z,15.52
2022-11-30T06:16:55.312Z,18.40
2022-11-30T06:19:23.374Z,15.52
2022-11-30T06:21:51.438Z,16.40
2022-11-30T06:24:20.938Z,15.63
2022-11-30T06:26:49.047Z,17.38
2022-11-30T06:29:17.154Z,15.82
2022-11-30T06:31:45.277Z,16.65
2022-11-30T06:34:13.331Z,21.65
2022-11-30T06:36:41.472Z,24.90
2022-11-30T06:39:11.962Z,17.45
2022-11-30T06:41:41.509Z,16.88
2022-11-30T06:44:12.143Z,16.77
2022-11-30T06:46:40.271Z,17.10
2022-11-30T06:49:08.591Z,15.82
2022-11-30T06:51:39.683Z,20.10
2022-11-30T06:54:08.021Z,16.63
2022-11-30T06:56:36.126Z,21.00
2022-11-30T06:59:05.564Z,19.77
2022-11-30T07:01:33.808Z,17.00
2022-11-30T07:04:01.954Z,17.40
2022-11-30T07:06:30.139Z,19.30
2022-11-30T07:08:58.150Z,17.13
2022-11-30T07:11:27.446Z,17.02
2022-11-30T07:13:56.510Z,16.10
2022-11-30T07:16:26.057Z,16.65
2022-11-30T07:18:54.386Z,16.95
2022-11-30T07:21:22.616Z,16.08
2022-11-30T07:24:13.265Z,16.63
2022-11-30T07:26:41.385Z,17.20
2022-11-30T07:29:09.533Z,17.33
2022-11-30T07:31:39.132Z,17.13
2022-11-30T07:34:10.329Z,16.92
2022-11-30T07:36:38.452Z,17.17
2022-11-30T07:39:06.629Z,18.35
2022-11-30T07:41:34.769Z,17.30
2022-11-30T07:44:05.697Z,17.60
2022-11-30T07:46:36.286Z,19.02
2022-11-30T07:49:06.931Z,17.27
2022-11-30T07:51:35.189Z,16.35
2022-11-30T07:54:04.482Z,15.52
2022-11-30T07:56:33.642Z,16.45
2022-11-30T07:59:03.221Z,16.25
2022-11-30T08:01:33.230Z,17.67
2022-11-30T08:04:01.961Z,15.60
2022-11-30T08:06:32.633Z,17.02
2022-11-30T08:09:04.394Z,16.85
2022-11-30T08:11:37.121Z,16.50
2022-11-30T08:14:05.563Z,18.05
2022-11-30T08:16:38.495Z,18.30
2022-11-30T08:19:07.098Z,16.30
2022-11-30T08:21:38.025Z,17.35
2022-11-30T08:24:06.777Z,16.63
2022-11-30T08:26:35.487Z,17.10
2022-11-30T08:29:05.047Z,16.33
2022-11-30T08:31:36.342Z,16.48
2022-11-30T08:34:06.928Z,16.35
2022-11-30T08:36:37.468Z,16.02
2022-11-30T08:39:07.111Z,16.63
2022-11-30T08:41:36.360Z,16.52
2022-11-30T08:44:04.539Z,16.15
2022-11-30T08:49:23.721Z,15.82
2022-11-30T08:54:46.096Z,16.33
2022-11-30T08:57:15.077Z,16.85
2022-11-30T08:59:43.153Z,16.08
2022-11-30T09:02:12.258Z,16.90
2022-11-30T09:04:40.367Z,16.75
2022-11-30T09:07:09.786Z,18.20
2022-11-30T09:09:38.215Z,17.17
2022-11-30T09:12:06.771Z,17.42
2022-11-30T09:14:36.394Z,17.52
2022-11-30T09:17:06.815Z,16.42
2022-11-30T09:19:34.840Z,17.15
2022-11-30T09:22:04.010Z,18.75
2022-11-30T09:24:33.564Z,18.63
2022-11-30T09:27:01.675Z,18.02
2022-11-30T09:29:29.922Z,18.52
2022-11-30T09:31:57.983Z,17.73
2022-11-30T09:34:26.065Z,16.40
2022-11-30T09:36:55.122Z,15.38
2022-11-30T09:39:23.525Z,14.85
2022-11-30T09:42:13.522Z,15.25
2022-11-30T09:44:52.991Z,16.80
2022-11-30T09:47:36.595Z,15.80
2022-11-30T09:50:11.153Z,16.35
2022-11-30T09:52:43.756Z,16.45
2022-11-30T09:55:14.982Z,15.90
2022-11-30T09:57:48.707Z,15.55
2022-11-30T10:00:19.050Z,14.70
2022-11-30T10:02:47.759Z,12.45
2022-11-30T10:05:18.317Z,15.55
2022-11-30T10:07:59.316Z,14.20
2022-11-30T10:10:37.344Z,13.90
2022-11-30T10:13:21.187Z,14.70
2022-11-30T10:16:01.667Z,14.18
2022-11-30T10:18:41.884Z,13.77
2022-11-30T10:21:24.664Z,14.75
2022-11-30T10:24:05.822Z,14.98
2022-11-30T10:26:38.677Z,14.75
2022-11-30T10:29:18.187Z,14.43
2022-11-30T10:31:48.375Z,14.18
2022-11-30T10:34:21.585Z,15.85
2022-11-30T10:36:55.143Z,14.85
2022-11-30T10:39:29.552Z,14.00
2022-11-30T10:42:05.164Z,14.57
2022-11-30T10:44:39.943Z,14.10
2022-11-30T10:47:17.430Z,15.70
2022-11-30T10:49:50.087Z,14.90
2022-11-30T10:52:23.579Z,14.60
2022-11-30T10:54:57.998Z,12.90
2022-11-30T10:57:32.840Z,14.60
2022-11-30T11:00:06.443Z,14.57
2022-11-30T11:02:41.139Z,15.75
2022-11-30T11:05:19.064Z,14.52
2022-11-30T11:07:51.329Z,14.63
2022-11-30T11:10:22.499Z,15.27
2022-11-30T11:12:52.758Z,14.90
2022-11-30T11:15:24.800Z,14.73
2022-11-30T11:17:54.434Z,15.45
2022-11-30T11:20:32.571Z,15.55
2022-11-30T11:23:00.919Z,15.48
2022-11-30T11:25:34.748Z,15.73
2022-11-30T11:28:09.129Z,14.85
2022-11-30T11:30:39.198Z,15.23
2022-11-30T11:33:21.621Z,14.75
2022-11-30T11:35:51.533Z,14.25
2022-11-30T11:38:21.801Z,15.70
2022-11-30T11:41:12.154Z,13.63
2022-11-30T11:44:00.855Z,15.25
2022-11-30T11:46:33.117Z,15.95
2022-11-30T11:49:05.273Z,14.32
2022-11-30T11:52:04.490Z,14.15
2022-11-30T11:54:36.422Z,13.85
2022-11-30T11:57:08.531Z,14.77
2022-11-30T11:59:43.112Z,14.35
2022-11-30T12:02:25.163Z,15.00
2022-11-30T12:04:55.466Z,13.73
2022-11-30T12:07:30.418Z,14.23
2022-11-30T12:13:20.773Z,13.88
2022-11-30T12:16:00.203Z,14.13
2022-11-30T12:18:38.573Z,13.10
2022-11-30T12:21:14.552Z,14.02
2022-11-30T12:24:09.149Z,13.77
2022-11-30T12:26:41.869Z,13.93
2022-11-30T12:29:38.120Z,13.55
2022-11-30T12:32:24.396Z,13.68
2022-11-30T12:35:14.668Z,13.57
2022-11-30T12:37:56.011Z,13.63
2022-11-30T12:40:36.756Z,14.68
2022-11-30T12:43:13.463Z,13.27
2022-11-30T12:45:44.925Z,13.67
2022-11-30T12:48:26.812Z,13.50
2022-11-30T12:51:08.688Z,13.80
2022-11-30T12:53:45.016Z,13.98
2022-11-30T12:56:27.159Z,13.95
2022-11-30T12:59:07.935Z,13.23
2022-11-30T13:01:53.799Z,12.82
2022-11-30T13:04:28.442Z,12.77
2022-11-30T13:07:02.313Z,13.25
2022-11-30T13:09:35.878Z,13.60
2022-11-30T13:12:08.671Z,14.02
2022-11-30T13:14:38.356Z,13.60
2022-11-30T13:17:09.940Z,15.07
2022-11-30T13:19:51.437Z,14.00
2022-11-30T13:22:25.867Z,13.48
2022-11-30T13:25:01.378Z,13.55
2022-11-30T13:27:40.098Z,13.13
2022-11-30T13:30:26.311Z,15.60
2022-11-30T13:32:58.713Z,13.93
2022-11-30T13:35:54.610Z,13.52
2022-11-30T13:38:39.746Z,15.25
2022-11-30T13:41:09.731Z,13.15
2022-11-30T13:43:45.158Z,14.18
2022-11-30T13:46:17.558Z,13.43
2022-11-30T13:48:46.585Z,13.60
2022-11-30T13:51:34.437Z,13.48
2022-11-30T13:54:36.111Z,13.85
2022-11-30T13:57:16.332Z,14.73
2022-11-30T13:59:51.519Z,13.65
2022-11-30T14:03:00.006Z,14.60
2022-11-30T14:05:39.507Z,14.38
2022-11-30T14:08:33.186Z,13.50
2022-11-30T14:11:42.311Z,15.02
2022-11-30T14:14:45.614Z,14.10
2022-11-30T14:17:19.950Z,15.15
2022-11-30T14:19:51.129Z,13.80
2022-11-30T14:22:19.607Z,14.32
2022-11-30T14:24:49.726Z,13.60
2022-11-30T14:27:21.087Z,13.85
2022-11-30T14:29:53.721Z,14.43
2022-11-30T14:32:35.052Z,13.73
2022-11-30T14:35:09.213Z,15.50
2022-11-30T14:37:45.835Z,16.80
2022-11-30T14:40:19.977Z,15.10
2022-11-30T14:42:50.601Z,13.93
2022-11-30T14:45:24.643Z,16.15
2022-11-30T14:47:54.951Z,14.00
2022-11-30T14:50:26.372Z,14.40
2022-11-30T14:53:04.236Z,14.38
2022-11-30T14:55:39.880Z,18.40
2022-11-30T14:58:18.913Z,15.25
2022-11-30T15:00:49.056Z,16.40
2022-11-30T15:03:21.305Z,15.07
2022-11-30T15:05:52.789Z,16.88
2022-11-30T15:08:22.034Z,19.05
2022-11-30T15:10:50.619Z,20.42
2022-11-30T15:13:21.097Z,17.02
2022-11-30T15:15:55.725Z,17.92
2022-11-30T15:18:24.772Z,14.23
2022-11-30T15:20:56.932Z,13.68
2022-11-30T15:23:25.452Z,16.13
2022-11-30T15:25:57.587Z,14.32
2022-11-30T15:28:29.702Z,14.00
2022-11-30T15:31:03.904Z,14.68
2022-11-30T15:33:37.759Z,15.20
2022-11-30T15:36:23.415Z,15.93
2022-11-30T15:38:54.721Z,14.23
2022-11-30T15:41:25.590Z,14.80
2022-11-30T15:43:56.057Z,14.25
2022-11-30T15:46:34.620Z,16.10
2022-11-30T15:49:16.857Z,14.32
2022-11-30T15:51:47.653Z,13.40
2022-11-30T15:54:15.903Z,13.60
2022-11-30T15:56:57.130Z,14.25
2022-11-30T15:59:27.260Z,14.50
2022-11-30T16:02:04.883Z,14.10
2022-11-30T16:05:10.867Z,14.18
2022-11-30T16:07:50.593Z,13.52
2022-11-30T16:10:22.793Z,12.73
2022-11-30T16:12:52.418Z,13.85
2022-11-30T16:15:23.320Z,12.90
2022-11-30T16:17:59.470Z,13.80
2022-11-30T16:20:27.981Z,12.90
2022-11-30T16:22:58.813Z,13.52
2022-11-30T16:25:29.271Z,12.50
2022-11-30T16:27:57.437Z,12.65
2022-11-30T16:30:25.808Z,13.55
2022-11-30T16:32:55.319Z,13.18
2022-11-30T16:35:27.081Z,13.45
2022-11-30T16:37:55.246Z,14.07
2022-11-30T16:40:23.503Z,13.30
2022-11-30T16:42:52.292Z,13.98
2022-11-30T16:45:21.956Z,14.20
2022-11-30T16:47:50.490Z,14.15
2022-11-30T16:50:20.836Z,13.45
2022-11-30T16:52:48.980Z,13.65
2022-11-30T16:55:20.759Z,14.77
2022-11-30T16:57:49.572Z,13.65
2022-11-30T17:00:20.705Z,14.60
2022-11-30T17:02:54.897Z,14.63
2022-11-30T17:05:24.706Z,14.43
2022-11-30T17:07:53.082Z,13.55
2022-11-30T17:10:21.939Z,14.48
2022-11-30T17:12:50.564Z,14.48
2022-11-30T17:15:20.809Z,14.00
2022-11-30T17:17:49.264Z,13.18
2022-11-30T17:20:18.195Z,13.68
2022-11-30T17:22:47.670Z,13.73
2022-11-30T17:25:18.354Z,14.27
2022-11-30T17:27:46.998Z,13.95
2022-11-30T17:30:18.088Z,13.80
2022-11-30T17:32:50.075Z,13.10
2022-11-30T17:35:19.039Z,14.13
2022-11-30T17:37:48.619Z,13.70
2022-11-30T17:40:16.950Z,13.95
2022-11-30T17:42:45.546Z,14.10
2022-11-30T17:45:13.733Z,14.05
2022-11-30T17:47:41.836Z,13.98
2022-11-30T17:50:13.789Z,13.63
2022-11-30T17:52:42.053Z,14.45
2022-11-30T17:55:11.809Z,13.48
2022-11-30T17:57:40.000Z,14.00
2022-11-30T18:00:09.699Z,13.93
2022-11-30T18:02:37.896Z,15.13
2022-11-30T18:05:07.197Z,14.32
2022-11-30T18:07:35.461Z,14.70
2022-11-30T18:10:03.745Z,15.02
2022-11-30T18:12:33.196Z,15.55
2022-11-30T18:15:01.403Z,14.73
2022-11-30T18:17:29.471Z,13.90
2022-11-30T18:19:57.617Z,14.73
2022-11-30T18:22:25.768Z,14.07
2022-11-30T18:24:56.242Z,14.13
2022-11-30T18:27:26.405Z,14.75
2022-11-30T18:29:55.923Z,14.35
2022-11-30T18:32:24.021Z,14.13
2022-11-30T18:34:52.074Z,15.20
2022-11-30T18:37:27.198Z,14.07
2022-11-30T18:39:55.534Z,14.32
2022-11-30T18:42:23.628Z,13.75
2022-11-30T18:44:51.667Z,14.60
2022-11-30T18:47:21.091Z,14.77
2022-11-30T18:49:49.396Z,14.50
2022-11-30T18:52:17.583Z,15.18
2022-11-30T18:54:52.346Z,14.65
2022-11-30T18:57:21.072Z,14.85
2022-11-30T18:59:53.685Z,14.65
2022-11-30T19:02:23.514Z,14.90
2022-11-30T19:04:51.705Z,13.93
2022-11-30T19:07:19.792Z,14.60
2022-11-30T19:09:47.949Z,14.70
2022-11-30T19:12:16.175Z,14.27
2022-11-30T19:14:45.717Z,14.68
2022-11-30T19:17:14.133Z,14.68
2022-11-30T19:19:43.598Z,14.13
2022-11-30T19:22:11.767Z,14.13
2022-11-30T19:24:39.908Z,14.70
2022-11-30T19:27:10.120Z,13.48
2022-11-30T19:29:38.324Z,13.63
2022-11-30T19:32:06.777Z,14.15
2022-11-30T19:34:35.082Z,13.52
2022-11-30T19:37:06.924Z,15.10
2022-11-30T19:39:35.109Z,13.65
2022-11-30T19:42:03.206Z,14.27
2022-11-30T19:44:31.274Z,12.80
2022-11-30T19:46:59.377Z,14.40
2022-11-30T19:49:27.445Z,14.05
2022-11-30T19:51:55.537Z,13.00
2022-11-30T19:54:27.247Z,12.80
2022-11-30T19:56:57.845Z,12.02
2022-11-30T19:59:26.147Z,12.95
2022-11-30T20:01:54.358Z,13.45
2022-11-30T20:04:23.902Z,13.52
2022-11-30T20:06:52.080Z,13.52
2022-11-30T20:09:20.179Z,13.43
2022-11-30T20:11:50.107Z,13.85
2022-11-30T20:14:18.752Z,13.10
2022-11-30T20:16:52.715Z,14.82
2022-11-30T20:19:21.053Z,14.25
2022-11-30T20:21:49.445Z,14.00
2022-11-30T20:24:17.588Z,13.38
2022-11-30T20:26:46.175Z,13.80
2022-11-30T20:29:17.317Z,14.27
2022-11-30T20:31:46.965Z,13.82
2022-11-30T20:34:15.268Z,13.32
2022-11-30T20:36:43.449Z,14.93
2022-11-30T20:39:12.508Z,14.75
2022-11-30T20:41:40.800Z,14.82
2022-11-30T20:44:08.901Z,15.20
2022-11-30T20:46:38.489Z,14.18
2022-11-30T20:49:15.134Z,13.63
2022-11-30T20:51:43.201Z,13.60
2022-11-30T20:54:12.710Z,13.82
2022-11-30T20:56:41.909Z,13.70
2022-11-30T20:59:15.270Z,12.93
2022-11-30T21:01:46.676Z,12.35
2022-11-30T21:04:14.814Z,13.02
2022-11-30T21:06:46.210Z,13.43
2022-11-30T21:09:14.717Z,13.32
2022-11-30T21:11:43.170Z,13.23
2022-11-30T21:14:11.613Z,13.57
2022-11-30T21:16:40.823Z,14.23
2022-11-30T21:19:11.712Z,12.90
2022-11-30T21:21:40.007Z,14.23
2022-11-30T21:24:09.862Z,13.82
2022-11-30T21:26:39.942Z,12.93
2022-11-30T21:29:11.636Z,14.30
2022-11-30T21:31:40.329Z,14.05
2022-11-30T21:34:10.111Z,13.82
2022-11-30T21:36:38.366Z,13.70
2022-11-30T21:39:08.313Z,13.48
2022-11-30T21:41:38.525Z,12.60
2022-11-30T21:44:07.461Z,12.98
2022-11-30T21:46:35.821Z,13.45
2022-11-30T21:49:04.376Z,13.88
2022-11-30T21:51:34.215Z,14.52
2022-11-30T21:54:04.660Z,12.95
2022-11-30T21:56:34.531Z,13.00
2022-11-30T21:59:06.297Z,11.93
2022-11-30T22:01:37.576Z,12.63
2022-11-30T22:04:08.037Z,13.10
2022-11-30T22:06:39.390Z,12.35
2022-11-30T22:09:09.520Z,12.48
2022-11-30T22:11:39.599Z,12.48
2022-11-30T22:14:08.743Z,12.85
2022-11-30T22:16:37.075Z,13.15
2022-11-30T22:19:06.807Z,11.40
2022-11-30T22:21:36.065Z,11.85
2022-11-30T22:24:07.575Z,12.13
2022-11-30T22:26:37.416Z,11.13
2022-11-30T22:29:08.329Z,12.43
2022-11-30T22:31:39.560Z,12.32
2022-11-30T22:34:08.275Z,11.80
2022-11-30T22:36:38.736Z,11.98
2022-11-30T22:39:12.057Z,11.88
2022-11-30T22:41:40.843Z,12.93
2022-11-30T22:44:09.377Z,13.07
2022-11-30T22:46:38.444Z,12.38
2022-11-30T22:49:09.297Z,12.57
2022-11-30T22:51:38.617Z,11.73
2022-11-30T22:54:08.597Z,12.35
2022-11-30T22:56:38.555Z,11.68
2022-11-30T22:59:06.655Z,11.65
2022-11-30T23:01:36.469Z,11.55
2022-11-30T23:04:06.699Z,11.43
2022-11-30T23:06:35.756Z,12.27
2022-11-30T23:09:05.507Z,12.52
2022-11-30T23:11:35.075Z,12.50
2022-11-30T23:14:08.070Z,12.88
2022-11-30T23:16:38.790Z,12.45
2022-11-30T23:19:07.395Z,12.30
2022-11-30T23:21:41.358Z,12.52
2022-11-30T23:24:14.569Z,12.67
2022-11-30T23:26:44.438Z,12.98
2022-11-30T23:29:15.049Z,12.18
2022-11-30T23:31:44.778Z,12.70
2022-11-30T23:34:14.743Z,12.68
2022-11-30T23:36:42.977Z,12.70
2022-11-30T23:39:14.783Z,11.82
2022-11-30T23:41:47.260Z,11.43
2022-11-30T23:44:17.466Z,11.55
2022-11-30T23:46:46.105Z,11.65
2022-11-30T23:49:14.944Z,11.68
2022-11-30T23:51:43.076Z,11.57
2022-11-30T23:54:11.141Z,11.20
2022-11-30T23:56:39.235Z,11.63
2022-11-30T23:59:08.874Z,10.93
